Time;durP1;ratioP1;P1;durP2;ratioP2;P2;SDS_P1;SDS_P2;PMS_P1;PMS_P2;Temp;Humidity;BMP_temperature;BMP_pressure;BME280_temperature;BME280_humidity;BME280_pressure;Samples;Min_cycle;Max_cycle;Signal;HPM_P1;HPM_P2
2021/01/31 00:01:53;;;;;;;9.90;3.28;;;1.70;85.10;;;;;;4961947;28;20251;-83
2021/01/31 00:04:21;;;;;;;6.30;3.50;;;1.60;84.80;;;;;;4974224;28;20567;-85
2021/01/31 00:06:50;;;;;;;9.90;3.15;;;1.70;84.40;;;;;;4957847;28;20047;-81
2021/01/31 00:09:19;;;;;;;7.10;3.35;;;1.60;84.10;;;;;;4989450;28;20103;-81
2021/01/31 00:11:47;;;;;;;11.00;4.75;;;1.60;84.00;;;;;;4992665;28;20054;-80
2021/01/31 00:14:16;;;;;;;6.97;3.08;;;1.60;84.60;;;;;;4968532;28;20062;-81
2021/01/31 00:16:43;;;;;;;6.05;3.42;;;1.50;84.90;;;;;;4955304;28;20078;-79
2021/01/31 00:19:12;;;;;;;7.88;3.28;;;1.60;84.80;;;;;;4965035;28;20074;-80
2021/01/31 00:21:41;;;;;;;7.82;3.47;;;1.60;84.60;;;;;;4979257;28;20380;-80
2021/01/31 00:24:08;;;;;;;8.95;4.05;;;1.70;84.50;;;;;;4963279;28;20049;-81
2021/01/31 00:26:37;;;;;;;7.55;3.20;;;1.60;84.80;;;;;;4964160;28;20043;-80
2021/01/31 00:29:07;;;;;;;6.57;2.78;;;1.60;85.20;;;;;;4971072;28;20055;-79
2021/01/31 00:31:40;;;;;;;8.25;3.95;;;1.60;85.90;;;;;;4978795;28;20059;-81
2021/01/31 00:34:08;;;;;;;9.38;3.70;;;1.50;85.90;;;;;;4965111;28;20102;-78
2021/01/31 00:36:37;;;;;;;10.07;3.78;;;1.40;85.70;;;;;;4996220;28;20043;-83
2021/01/31 00:39:07;;;;;;;12.80;4.40;;;1.40;86.50;;;;;;4956718;28;20054;-81
2021/01/31 00:41:39;;;;;;;9.27;4.30;;;1.40;87.10;;;;;;4971495;28;20063;-82
2021/01/31 00:44:08;;;;;;;7.53;4.00;;;1.40;86.40;;;;;;4964958;28;20109;-81
2021/01/31 00:46:37;;;;;;;6.53;3.05;;;1.40;86.80;;;;;;4990027;28;20047;-81
2021/01/31 00:49:09;;;;;;;8.50;3.92;;;1.20;86.30;;;;;;4938199;28;20055;-81
2021/01/31 00:51:37;;;;;;;7.45;3.00;;;1.20;87.00;;;;;;4958212;28;20122;-81
2021/01/31 00:54:05;;;;;;;8.55;3.15;;;1.20;87.30;;;;;;4971223;28;20059;-81
2021/01/31 00:56:33;;;;;;;8.45;3.33;;;1.20;87.60;;;;;;4957719;28;20051;-84
2021/01/31 00:59:03;;;;;;;9.73;4.13;;;1.10;87.60;;;;;;4973998;28;20285;-81
2021/01/31 01:01:31;;;;;;;;;;;1.00;87.50;;;;;;4958102;28;20266;-81
2021/01/31 01:04:00;;;;;;;8.65;3.53;;;1.00;88.10;;;;;;4969260;28;19941;-80
2021/01/31 01:06:47;;;;;;;13.07;3.92;;;1.10;88.10;;;;;;4976749;28;20215;-80
2021/01/31 01:09:16;;;;;;;8.02;3.22;;;1.10;88.10;;;;;;4993753;28;20047;-80
2021/01/31 01:11:44;;;;;;;10.57;4.45;;;1.10;87.70;;;;;;4978200;28;20146;-80
2021/01/31 01:14:14;;;;;;;10.50;4.22;;;1.20;87.60;;;;;;4964224;28;21062;-80
2021/01/31 01:16:42;;;;;;;12.18;4.45;;;1.20;87.40;;;;;;4971798;28;20051;-80
2021/01/31 01:19:10;;;;;;;11.68;4.35;;;1.20;86.90;;;;;;4961722;28;20055;-80
2021/01/31 01:21:38;;;;;;;5.80;3.08;;;1.20;86.80;;;;;;4962245;28;20069;-79
2021/01/31 01:24:06;;;;;;;6.47;4.10;;;1.20;87.50;;;;;;4961367;28;20365;-81
2021/01/31 01:26:36;;;;;;;9.52;3.58;;;1.30;87.10;;;;;;4955305;28;20047;-81
2021/01/31 01:29:03;;;;;;;11.33;4.10;;;1.20;87.40;;;;;;4959031;28;20562;-82
2021/01/31 01:31:32;;;;;;;7.28;3.72;;;1.30;87.80;;;;;;4961631;28;20315;-81
2021/01/31 01:33:59;;;;;;;7.72;3.88;;;1.20;87.70;;;;;;4979310;28;20070;-79
2021/01/31 01:36:28;;;;;;;6.15;3.42;;;1.20;87.90;;;;;;4958043;28;20051;-80
2021/01/31 01:38:56;;;;;;;13.10;3.42;;;1.30;87.20;;;;;;4955402;28;20230;-80
2021/01/31 01:41:25;;;;;;;11.88;4.80;;;1.50;85.90;;;;;;4960040;28;20058;-79
2021/01/31 01:43:55;;;;;;;10.10;4.63;;;1.30;85.80;;;;;;4978886;28;20193;-81
2021/01/31 01:46:35;;;;;;;8.73;4.20;;;1.20;86.20;;;;;;4973207;28;20047;-83
2021/01/31 01:49:08;;;;;;;7.75;4.13;;;1.20;85.90;;;;;;4993098;28;20051;-80
2021/01/31 01:51:42;;;;;;;11.20;3.72;;;1.20;86.40;;;;;;4971535;28;20051;-81
2021/01/31 01:54:14;;;;;;;8.60;3.70;;;1.10;86.40;;;;;;4974015;28;20058;-82
2021/01/31 01:56:46;;;;;;;9.27;3.67;;;1.00;86.10;;;;;;4993839;28;20051;-80
2021/01/31 01:59:15;;;;;;;10.55;4.40;;;1.00;85.60;;;;;;4957761;28;20047;-80
2021/01/31 02:01:57;;;;;;;10.88;4.40;;;0.90;85.80;;;;;;4960877;28;20043;-83
2021/01/31 02:04:25;;;;;;;11.43;4.28;;;0.80;86.00;;;;;;4960362;28;20059;-79
2021/01/31 02:06:54;;;;;;;8.85;3.80;;;0.90;85.80;;;;;;4969784;28;21288;-82
2021/01/31 02:09:23;;;;;;;9.52;3.95;;;0.70;86.00;;;;;;4976510;28;20051;-83
2021/01/31 02:11:56;;;;;;;9.88;4.45;;;0.60;86.40;;;;;;5006436;28;20051;-79
2021/01/31 02:14:26;;;;;;;9.30;4.00;;;0.70;86.00;;;;;;4975751;28;20106;-83
2021/01/31 02:17:00;;;;;;;11.20;3.35;;;0.60;85.90;;;;;;4953733;28;20300;-80
2021/01/31 02:20:09;;;;;;;9.38;3.67;;;0.60;86.20;;;;;;4967896;28;20091;-79
2021/01/31 02:23:23;;;;;;;10.93;3.97;;;0.50;86.30;;;;;;4970832;28;20047;-80
2021/01/31 02:26:03;;;;;;;9.52;3.50;;;0.30;87.30;;;;;;4906411;29;21012;-80
2021/01/31 02:29:13;;;;;;;9.32;3.42;;;0.20;87.60;;;;;;4920331;29;20065;-81
2021/01/31 02:32:11;;;;;;;9.45;3.42;;;0.10;87.90;;;;;;4950337;28;20224;-81
2021/01/31 02:34:52;;;;;;;7.60;3.45;;;0.00;88.10;;;;;;4955941;28;20132;-80
2021/01/31 02:37:27;;;;;;;8.27;3.97;;;0.00;88.40;;;;;;4968817;28;20118;-82
2021/01/31 02:40:05;;;;;;;8.18;3.40;;;0.00;88.50;;;;;;5012997;28;20047;-82
2021/01/31 02:42:50;;;;;;;7.35;3.88;;;0.00;87.90;;;;;;5013502;28;20046;-79
2021/01/31 02:45:23;;;;;;;12.25;5.00;;;-3276.70;88.30;;;;;;5010638;28;20053;-78
2021/01/31 02:47:56;;;;;;;7.05;2.67;;;-3276.60;88.40;;;;;;4957375;28;20054;-82
2021/01/31 02:50:31;;;;;;;8.98;3.88;;;-3276.60;88.40;;;;;;4991882;28;20368;-81
2021/01/31 02:53:05;;;;;;;10.65;3.35;;;-3276.70;88.00;;;;;;4977334;28;20241;-79
2021/01/31 02:55:39;;;;;;;7.63;2.75;;;-3276.70;87.70;;;;;;4999403;28;20050;-79
2021/01/31 02:58:17;;;;;;;7.75;2.75;;;-3276.70;87.80;;;;;;4999724;28;20062;-82
2021/01/31 03:00:54;;;;;;;7.75;3.10;;;-3276.70;87.70;;;;;;4979852;28;20603;-79
2021/01/31 03:03:29;;;;;;;8.63;3.63;;;-3276.70;87.10;;;;;;4996339;28;20051;-79
2021/01/31 03:06:00;;;;;;;8.13;3.03;;;-3276.70;87.10;;;;;;5004610;28;20057;-78
2021/01/31 03:08:33;;;;;;;9.40;2.88;;;-3276.70;87.00;;;;;;4980766;28;20078;-79
2021/01/31 03:11:07;;;;;;;6.25;2.70;;;-3276.70;87.20;;;;;;4957204;28;20054;-81
2021/01/31 03:13:39;;;;;;;8.23;3.55;;;-3276.70;87.10;;;;;;4965079;28;20385;-80
2021/01/31 03:16:12;;;;;;;6.90;3.40;;;-3276.70;87.20;;;;;;4956424;28;20224;-80
2021/01/31 03:18:45;;;;;;;8.02;3.92;;;0.00;86.80;;;;;;4989140;28;20086;-82
2021/01/31 03:21:21;;;;;;;6.00;2.95;;;0.00;86.50;;;;;;4964603;28;20057;-80
2021/01/31 03:23:56;;;;;;;11.15;4.25;;;0.00;86.80;;;;;;4993239;28;20051;-82
2021/01/31 03:26:30;;;;;;;6.20;2.88;;;0.00;86.90;;;;;;4959709;28;20166;-82
2021/01/31 03:28:57;;;;;;;11.18;4.45;;;0.00;86.50;;;;;;4973103;28;20571;-81
2021/01/31 03:31:29;;;;;;;10.88;5.07;;;0.10;86.40;;;;;;4956557;28;20289;-81
2021/01/31 03:34:03;;;;;;;8.38;3.78;;;0.20;86.10;;;;;;4958700;28;20055;-82
2021/01/31 03:36:38;;;;;;;7.32;2.88;;;0.20;85.50;;;;;;4993721;28;20051;-81
2021/01/31 03:39:06;;;;;;;7.38;2.88;;;0.10;85.10;;;;;;4963650;28;20054;-81
2021/01/31 03:41:34;;;;;;;4.63;2.65;;;0.20;85.40;;;;;;5010374;28;20665;-78
2021/01/31 03:44:02;;;;;;;8.73;4.00;;;0.20;85.10;;;;;;4993068;28;20062;-81
2021/01/31 03:46:38;;;;;;;6.90;3.88;;;0.20;85.30;;;;;;4975160;28;20055;-81
2021/01/31 03:49:10;;;;;;;6.15;3.30;;;0.20;85.00;;;;;;4977495;28;20055;-81
2021/01/31 03:51:39;;;;;;;8.57;3.85;;;0.30;84.40;;;;;;4992687;28;20070;-81
2021/01/31 03:54:10;;;;;;;6.28;2.83;;;0.20;84.60;;;;;;4977614;28;20105;-82
2021/01/31 03:56:42;;;;;;;11.43;3.53;;;0.20;84.70;;;;;;4997995;28;20042;-84
2021/01/31 03:59:14;;;;;;;9.15;4.85;;;0.30;84.50;;;;;;4999033;28;20093;-82
2021/01/31 04:01:41;;;;;;;;;;;0.30;83.90;;;;;;5016233;28;20081;-82
2021/01/31 04:04:16;;;;;;;8.13;2.53;;;0.30;84.40;;;;;;4986443;28;19957;-80
2021/01/31 04:06:49;;;;;;;8.57;3.65;;;0.20;84.30;;;;;;5003126;28;20058;-80
2021/01/31 04:09:18;;;;;;;9.25;3.70;;;0.20;84.10;;;;;;4983767;28;20054;-82
2021/01/31 04:11:46;;;;;;;9.40;2.88;;;0.20;83.90;;;;;;4994901;28;20070;-81
2021/01/31 04:14:22;;;;;;;12.30;4.45;;;0.30;84.00;;;;;;4999531;28;20101;-82
2021/01/31 04:16:51;;;;;;;7.93;4.35;;;0.20;84.30;;;;;;4986468;28;20073;-80
2021/01/31 04:19:22;;;;;;;8.85;3.45;;;0.30;83.70;;;;;;5000859;28;20058;-80
2021/01/31 04:21:50;;;;;;;7.28;3.22;;;0.30;84.20;;;;;;4985774;28;20047;-84
2021/01/31 04:24:19;;;;;;;10.23;4.25;;;0.40;83.90;;;;;;4976900;28;20093;-82
2021/01/31 04:26:48;;;;;;;11.05;4.38;;;0.40;83.60;;;;;;4985697;28;20262;-83
2021/01/31 04:29:16;;;;;;;11.27;4.18;;;0.40;83.40;;;;;;4985777;28;20054;-82
2021/01/31 04:31:44;;;;;;;10.23;4.22;;;0.40;83.90;;;;;;4992616;28;20407;-82
2021/01/31 04:34:12;;;;;;;8.43;4.18;;;0.30;83.70;;;;;;4990878;28;20051;-81
2021/01/31 04:36:40;;;;;;;7.95;3.83;;;0.40;83.60;;;;;;4979854;28;20093;-82
2021/01/31 04:39:08;;;;;;;8.52;3.97;;;0.50;82.90;;;;;;5011512;28;20050;-81
2021/01/31 04:41:39;;;;;;;8.90;4.03;;;0.40;82.50;;;;;;4996276;28;20059;-81
2021/01/31 04:44:11;;;;;;;9.95;4.95;;;0.40;82.60;;;;;;4997821;28;20088;-80
2021/01/31 04:46:42;;;;;;;9.68;3.65;;;0.30;82.60;;;;;;4997689;28;20334;-80
2021/01/31 04:49:27;;;;;;;8.70;3.58;;;0.30;83.40;;;;;;4969185;28;20103;-80
2021/01/31 04:52:17;;;;;;;9.60;3.63;;;0.30;82.30;;;;;;5020402;28;20161;-80
2021/01/31 04:55:15;;;;;;;9.43;4.47;;;0.30;82.80;;;;;;4987936;28;20046;-80
2021/01/31 04:57:46;;;;;;;8.85;4.63;;;0.20;83.10;;;;;;4978383;28;20042;-80
2021/01/31 05:00:18;;;;;;;12.63;4.45;;;0.30;82.90;;;;;;5002284;28;20047;-80
2021/01/31 05:02:51;;;;;;;7.40;3.75;;;0.30;83.40;;;;;;4980715;28;20102;-79
2021/01/31 05:05:22;;;;;;;6.78;3.60;;;0.40;82.90;;;;;;4987571;28;20051;-79
2021/01/31 05:07:55;;;;;;;7.82;4.20;;;0.40;82.30;;;;;;4986195;28;20357;-80
2021/01/31 05:10:27;;;;;;;8.70;3.95;;;0.30;82.20;;;;;;5014378;28;20058;-80
2021/01/31 05:13:11;;;;;;;8.35;4.15;;;0.30;82.20;;;;;;4980430;28;20137;-82
2021/01/31 05:15:45;;;;;;;6.82;3.55;;;0.30;82.50;;;;;;4979566;28;20085;-79
2021/01/31 05:18:15;;;;;;;10.85;4.72;;;0.30;81.80;;;;;;4996664;28;20061;-82
2021/01/31 05:20:48;;;;;;;9.02;4.05;;;0.30;82.00;;;;;;4983020;28;20073;-79
2021/01/31 05:23:18;;;;;;;10.48;3.80;;;0.20;82.10;;;;;;4976006;28;20265;-80
2021/01/31 05:25:48;;;;;;;10.18;3.88;;;0.10;82.80;;;;;;4981205;28;20061;-81
2021/01/31 05:28:17;;;;;;;11.93;3.85;;;0.10;83.20;;;;;;5002126;28;20090;-81
2021/01/31 05:30:46;;;;;;;9.35;3.80;;;0.00;83.30;;;;;;4986664;28;20370;-82
2021/01/31 05:33:15;;;;;;;8.50;3.92;;;0.10;83.30;;;;;;5002051;28;20230;-84
2021/01/31 05:35:46;;;;;;;9.02;4.05;;;0.00;83.20;;;;;;4985926;28;20074;-84
2021/01/31 05:38:35;;;;;;;6.78;3.80;;;0.00;82.90;;;;;;4971051;28;20058;-80
2021/01/31 05:41:36;;;;;;;9.40;3.35;;;0.00;83.10;;;;;;5002571;28;20698;-82
2021/01/31 05:44:10;;;;;;;10.07;4.35;;;0.00;82.90;;;;;;5000248;28;20609;-80
2021/01/31 05:46:41;;;;;;;6.65;3.17;;;0.10;82.70;;;;;;4985678;28;20278;-82
2021/01/31 05:49:29;;;;;;;9.85;4.53;;;0.00;82.80;;;;;;5002583;28;20051;-81
2021/01/31 05:52:01;;;;;;;10.60;3.95;;;0.10;82.70;;;;;;4986522;28;20046;-81
2021/01/31 05:54:35;;;;;;;9.70;4.28;;;0.00;82.40;;;;;;4977169;28;20070;-79
2021/01/31 05:57:22;;;;;;;7.50;3.08;;;0.00;82.60;;;;;;4985289;28;20097;-82
2021/01/31 05:59:50;;;;;;;10.13;3.92;;;0.00;83.00;;;;;;4999841;28;20065;-82
2021/01/31 06:02:24;;;;;;;10.27;4.20;;;0.10;82.90;;;;;;5000098;28;20082;-80
2021/01/31 06:05:11;;;;;;;10.48;3.47;;;0.00;82.90;;;;;;4984402;28;20503;-82
2021/01/31 06:07:40;;;;;;;11.32;4.03;;;0.10;82.70;;;;;;4983919;28;20069;-82
2021/01/31 06:10:12;;;;;;;9.05;3.55;;;0.10;83.00;;;;;;4978502;28;20128;-82
2021/01/31 06:12:43;;;;;;;5.93;2.65;;;0.00;83.30;;;;;;4985152;28;20054;-80
2021/01/31 06:15:17;;;;;;;7.65;3.53;;;0.10;83.00;;;;;;4965617;28;20114;-79
2021/01/31 06:17:55;;;;;;;7.05;2.83;;;0.10;82.80;;;;;;4982106;28;20139;-79
2021/01/31 06:20:30;;;;;;;8.85;3.92;;;0.00;83.20;;;;;;4986104;28;20054;-79
2021/01/31 06:22:59;;;;;;;9.52;3.92;;;0.10;83.20;;;;;;4997472;28;20051;-80
2021/01/31 06:25:39;;;;;;;7.80;3.70;;;0.10;83.20;;;;;;4992330;28;20047;-80
2021/01/31 06:28:19;;;;;;;10.75;3.90;;;0.10;83.00;;;;;;4999635;28;20058;-82
2021/01/31 06:30:57;;;;;;;9.48;4.22;;;0.10;82.50;;;;;;4999789;28;20077;-79
2021/01/31 06:33:25;;;;;;;5.20;3.05;;;0.20;82.80;;;;;;4991048;28;20054;-79
2021/01/31 06:36:05;;;;;;;9.15;4.88;;;0.10;82.50;;;;;;4964337;28;20385;-79
2021/01/31 06:38:43;;;;;;;6.68;2.88;;;0.10;81.90;;;;;;4983759;28;20047;-79
2021/01/31 06:41:23;;;;;;;9.50;3.97;;;0.10;82.20;;;;;;4964945;28;20050;-80
2021/01/31 06:44:06;;;;;;;10.05;3.55;;;0.20;81.80;;;;;;4996472;28;20046;-78
2021/01/31 06:46:45;;;;;;;5.85;3.08;;;0.10;82.20;;;;;;4997222;28;20049;-78
2021/01/31 06:49:32;;;;;;;8.23;3.67;;;0.00;82.20;;;;;;4996790;28;20063;-78
2021/01/31 06:52:12;;;;;;;5.07;3.08;;;0.00;82.70;;;;;;4982856;28;20039;-79
2021/01/31 06:55:14;;;;;;;13.98;5.00;;;-3276.70;82.90;;;;;;4997140;28;20047;-79
2021/01/31 06:58:13;;;;;;;6.35;3.22;;;-3276.60;82.80;;;;;;4985265;28;20074;-82
2021/01/31 07:01:21;;;;;;;8.15;3.65;;;-3276.40;83.40;;;;;;5006348;28;20062;-82
2021/01/31 07:04:29;;;;;;;7.35;3.13;;;-3276.30;84.10;;;;;;4952541;28;20365;-78
2021/01/31 07:07:30;;;;;;;5.10;2.45;;;-3276.20;84.00;;;;;;5010381;28;20039;-78
2021/01/31 07:10:38;;;;;;;8.98;3.55;;;-3276.10;84.30;;;;;;4996890;28;20290;-79
2021/01/31 07:13:21;;;;;;;7.35;4.00;;;-3276.00;84.40;;;;;;4952581;28;20051;-83
2021/01/31 07:16:03;;;;;;;6.05;3.00;;;-3276.00;85.20;;;;;;4969977;28;20347;-82
2021/01/31 07:18:35;;;;;;;7.47;4.18;;;-3276.00;85.10;;;;;;4982414;28;20061;-80
2021/01/31 07:21:08;;;;;;;5.90;2.70;;;-3276.00;85.20;;;;;;5010052;28;20055;-83
2021/01/31 07:23:38;;;;;;;6.43;2.65;;;-3276.00;84.90;;;;;;4997745;28;20062;-80
2021/01/31 07:26:21;;;;;;;9.40;4.70;;;-3275.90;84.70;;;;;;5016256;28;20046;-82
2021/01/31 07:28:55;;;;;;;9.30;4.55;;;-3275.90;85.00;;;;;;4966644;28;20046;-78
2021/01/31 07:31:31;;;;;;;8.52;4.28;;;-3275.90;85.10;;;;;;4999860;28;20050;-78
2021/01/31 07:34:04;;;;;;;5.07;2.70;;;-3275.90;85.10;;;;;;4998274;28;20082;-78
2021/01/31 07:36:36;;;;;;;6.25;3.55;;;-3275.90;85.30;;;;;;4974912;28;20075;-78
2021/01/31 07:39:08;;;;;;;9.73;2.75;;;-3276.00;85.20;;;;;;4965278;28;20050;-78
2021/01/31 07:41:50;;;;;;;4.18;2.72;;;-3276.00;84.90;;;;;;4978665;28;20082;-83
2021/01/31 07:44:24;;;;;;;7.82;3.40;;;-3276.10;84.80;;;;;;4979623;28;20086;-79
2021/01/31 07:46:57;;;;;;;10.05;4.00;;;-3276.30;84.30;;;;;;4996001;28;20046;-80
2021/01/31 07:49:27;;;;;;;6.50;2.75;;;-3276.30;83.90;;;;;;4971238;28;20074;-79
2021/01/31 07:52:10;;;;;;;8.48;3.47;;;-3276.40;83.80;;;;;;5003623;28;20351;-79
2021/01/31 07:54:39;;;;;;;6.47;3.30;;;-3276.50;83.60;;;;;;4994563;28;20378;-81
2021/01/31 07:57:41;;;;;;;9.57;3.45;;;-3276.50;83.60;;;;;;4985706;28;20042;-80
2021/01/31 08:00:15;;;;;;;6.40;4.45;;;-3276.50;83.40;;;;;;5006286;28;20055;-79
2021/01/31 08:02:46;;;;;;;7.38;3.15;;;-3276.50;83.10;;;;;;4972475;28;20062;-79
2021/01/31 08:05:52;;;;;;;8.40;3.22;;;-3276.50;83.40;;;;;;4994383;28;20055;-79
2021/01/31 08:08:39;;;;;;;10.73;3.53;;;-3276.50;83.40;;;;;;4973714;28;20100;-80
2021/01/31 08:11:09;;;;;;;5.22;2.60;;;-3276.50;83.40;;;;;;4961263;28;20660;-81
2021/01/31 08:13:42;;;;;;;7.10;3.58;;;-3276.50;83.30;;;;;;4990353;28;20082;-81
2021/01/31 08:16:49;;;;;;;8.73;3.22;;;-3276.50;83.30;;;;;;4992505;28;20071;-79
2021/01/31 08:19:29;;;;;;;7.97;3.80;;;-3276.50;83.50;;;;;;4990052;28;20109;-80
2021/01/31 08:22:00;;;;;;;11.05;3.72;;;-3276.40;83.40;;;;;;4984810;28;20363;-80
2021/01/31 08:25:00;;;;;;;7.93;3.97;;;-3276.40;83.40;;;;;;4971697;28;20060;-82
2021/01/31 08:27:52;;;;;;;8.93;4.03;;;-3276.50;83.50;;;;;;4973727;28;20317;-79
2021/01/31 08:30:28;;;;;;;7.80;4.47;;;-3276.40;83.60;;;;;;4971750;28;20035;-83
2021/01/31 08:33:24;;;;;;;6.45;3.45;;;-3276.50;83.90;;;;;;4971411;28;20055;-83
2021/01/31 08:36:15;;;;;;;7.57;3.63;;;-3276.60;83.80;;;;;;4958371;28;20054;-81
2021/01/31 08:38:53;;;;;;;8.95;4.35;;;-3276.50;83.80;;;;;;4963928;28;20055;-79
2021/01/31 08:41:36;;;;;;;9.27;2.83;;;-3276.60;83.60;;;;;;4960225;28;20121;-80
2021/01/31 08:44:41;;;;;;;6.63;2.47;;;-3276.60;83.60;;;;;;4964494;28;20065;-79
2021/01/31 08:47:12;;;;;;;9.02;3.72;;;-3276.70;83.60;;;;;;5010253;28;20070;-81
2021/01/31 08:49:40;;;;;;;7.80;3.20;;;0.00;83.40;;;;;;4994106;28;20074;-79
2021/01/31 08:52:13;;;;;;;10.63;3.97;;;0.00;83.40;;;;;;4996924;28;20046;-79
2021/01/31 08:54:41;;;;;;;8.13;3.42;;;0.10;83.00;;;;;;5011795;28;20050;-78
2021/01/31 08:57:12;;;;;;;12.38;3.15;;;0.20;82.50;;;;;;4995328;28;20055;-79
2021/01/31 08:59:45;;;;;;;9.13;4.38;;;0.40;82.00;;;;;;4998767;28;20054;-82
2021/01/31 09:02:21;;;;;;;8.38;3.95;;;0.60;81.70;;;;;;4996651;28;20063;-80
2021/01/31 09:04:53;;;;;;;7.50;3.80;;;0.80;80.70;;;;;;4975673;28;20049;-80
2021/01/31 09:07:29;;;;;;;9.20;3.63;;;0.90;80.20;;;;;;4980745;28;20244;-78
2021/01/31 09:10:04;;;;;;;7.47;3.30;;;1.00;79.90;;;;;;4995458;28;20050;-79
2021/01/31 09:12:32;;;;;;;9.32;3.85;;;1.20;79.40;;;;;;4996140;28;20050;-80
2021/01/31 09:15:25;;;;;;;6.13;3.13;;;1.40;79.00;;;;;;4992816;28;20051;-79
2021/01/31 09:18:05;;;;;;;8.52;2.75;;;1.60;77.70;;;;;;4977744;28;20158;-82
2021/01/31 09:20:32;;;;;;;8.35;2.70;;;1.90;77.50;;;;;;5018093;28;20065;-79
2021/01/31 09:23:12;;;;;;;7.55;3.00;;;2.20;76.70;;;;;;4995263;28;20051;-81
2021/01/31 09:25:39;;;;;;;8.00;3.40;;;2.60;75.30;;;;;;4977340;28;20373;-81
2021/01/31 09:28:11;;;;;;;8.45;3.70;;;3.00;73.70;;;;;;4970672;28;20073;-81
2021/01/31 09:30:42;;;;;;;6.20;3.10;;;3.40;72.10;;;;;;4964792;28;20059;-80
2021/01/31 09:33:13;;;;;;;6.65;3.40;;;4.10;70.00;;;;;;5016343;28;20282;-80
2021/01/31 09:35:43;;;;;;;10.48;4.45;;;4.70;67.70;;;;;;5005650;28;20050;-80
2021/01/31 09:38:23;;;;;;;9.00;2.92;;;5.10;67.00;;;;;;4998130;28;20370;-80
2021/01/31 09:40:54;;;;;;;9.15;3.83;;;5.80;64.00;;;;;;4977492;28;20055;-82
2021/01/31 09:43:26;;;;;;;8.88;3.38;;;6.40;62.90;;;;;;4999045;28;20066;-82
2021/01/31 09:45:56;;;;;;;6.47;3.20;;;7.10;58.70;;;;;;4997302;28;20066;-81
2021/01/31 09:48:26;;;;;;;6.63;3.10;;;7.20;57.70;;;;;;4992188;28;20216;-81
2021/01/31 09:50:59;;;;;;;8.35;3.92;;;7.30;55.50;;;;;;5006374;28;20104;-81
2021/01/31 09:53:37;;;;;;;6.15;2.85;;;6.60;59.20;;;;;;4996503;28;20054;-80
2021/01/31 09:56:09;;;;;;;7.55;3.65;;;6.80;58.20;;;;;;5014488;28;20061;-80
2021/01/31 09:58:43;;;;;;;8.20;3.53;;;7.20;57.40;;;;;;5015912;28;20063;-80
2021/01/31 10:01:17;;;;;;;6.43;3.08;;;7.80;55.90;;;;;;4981023;28;20042;-81
2021/01/31 10:03:46;;;;;;;7.47;3.45;;;8.00;55.20;;;;;;4983510;28;20215;-82
2021/01/31 10:06:16;;;;;;;7.15;3.35;;;8.40;52.80;;;;;;5010854;28;20054;-81
2021/01/31 10:08:56;;;;;;;9.02;3.92;;;7.20;55.10;;;;;;4977049;28;20102;-80
2021/01/31 10:11:33;;;;;;;9.27;3.75;;;7.90;56.00;;;;;;4980527;28;20054;-80
2021/01/31 10:14:01;;;;;;;5.85;3.15;;;9.20;52.00;;;;;;4971281;28;20051;-80
2021/01/31 10:16:31;;;;;;;7.03;3.53;;;10.10;49.50;;;;;;4981422;28;20046;-80
2021/01/31 10:19:14;;;;;;;7.55;4.32;;;9.40;47.20;;;;;;4980098;28;20075;-80
2021/01/31 10:21:47;;;;;;;6.40;3.33;;;9.70;49.40;;;;;;4984339;28;20394;-79
2021/01/31 10:24:25;;;;;;;8.55;3.13;;;10.60;47.30;;;;;;4992599;28;20138;-80
2021/01/31 10:27:05;;;;;;;6.40;3.40;;;11.50;46.20;;;;;;4963215;28;20424;-79
2021/01/31 10:29:33;;;;;;;6.65;3.35;;;11.90;43.60;;;;;;4983236;28;20082;-79
2021/01/31 10:32:23;;;;;;;8.00;3.55;;;12.20;42.40;;;;;;4984044;28;20114;-80
2021/01/31 10:34:51;;;;;;;8.90;4.10;;;12.40;41.10;;;;;;4981796;28;20724;-80
2021/01/31 10:37:20;;;;;;;8.75;3.55;;;12.20;41.70;;;;;;4986076;28;20234;-81
2021/01/31 10:39:49;;;;;;;7.07;3.17;;;12.30;41.00;;;;;;4996003;28;20281;-80
2021/01/31 10:42:16;;;;;;;8.32;3.60;;;12.60;40.70;;;;;;4996210;28;20051;-80
2021/01/31 10:44:43;;;;;;;8.95;3.55;;;12.40;41.40;;;;;;4999575;28;20063;-81
2021/01/31 10:47:10;;;;;;;8.57;3.33;;;12.90;40.80;;;;;;4997900;28;20058;-80
2021/01/31 10:49:37;;;;;;;6.80;3.30;;;13.10;39.50;;;;;;4992693;28;20054;-79
2021/01/31 10:52:05;;;;;;;7.72;3.78;;;13.20;39.30;;;;;;4999748;28;20290;-80
2021/01/31 10:54:32;;;;;;;8.35;3.42;;;13.60;38.60;;;;;;4981905;28;20065;-79
2021/01/31 10:57:00;;;;;;;6.78;3.10;;;13.40;37.60;;;;;;4982155;28;20070;-81
2021/01/31 10:59:33;;;;;;;7.70;3.80;;;13.40;38.00;;;;;;4995597;28;20069;-83
2021/01/31 11:02:07;;;;;;;7.65;3.47;;;13.70;37.10;;;;;;4997636;28;20070;-80
2021/01/31 11:04:34;;;;;;;8.38;3.65;;;13.60;37.90;;;;;;4981241;28;20053;-82
2021/01/31 11:07:04;;;;;;;7.40;3.17;;;13.80;36.70;;;;;;4964930;28;20050;-82
2021/01/31 11:09:34;;;;;;;8.18;3.78;;;13.00;37.40;;;;;;4974800;28;20047;-84
2021/01/31 11:12:06;;;;;;;7.35;3.22;;;12.40;38.70;;;;;;5010193;28;20058;-80
2021/01/31 11:14:33;;;;;;;5.82;2.95;;;11.90;39.80;;;;;;4993437;28;20063;-80
2021/01/31 11:17:02;;;;;;;6.60;2.92;;;11.60;40.90;;;;;;4961713;28;20048;-82
2021/01/31 11:19:30;;;;;;;7.85;3.13;;;11.20;41.30;;;;;;4971844;28;20295;-80
2021/01/31 11:22:03;;;;;;;10.05;3.85;;;10.60;43.60;;;;;;4994143;28;20066;-80
2021/01/31 11:24:31;;;;;;;8.55;3.13;;;10.60;43.30;;;;;;4989703;28;20066;-79
2021/01/31 11:26:58;;;;;;;7.43;3.40;;;9.60;45.10;;;;;;4990196;28;20121;-82
2021/01/31 11:29:27;;;;;;;9.80;3.72;;;8.60;48.40;;;;;;4971650;28;20125;-81
2021/01/31 11:31:54;;;;;;;7.85;3.55;;;8.10;50.70;;;;;;4991049;28;20055;-81
2021/01/31 11:34:21;;;;;;;7.93;3.33;;;7.90;51.60;;;;;;4977211;28;20075;-80
2021/01/31 11:36:49;;;;;;;6.90;2.90;;;7.40;53.20;;;;;;4970771;28;20093;-80
2021/01/31 11:39:16;;;;;;;7.25;3.28;;;7.10;53.80;;;;;;4976997;28;20058;-80
2021/01/31 11:41:44;;;;;;;8.25;3.72;;;6.50;55.60;;;;;;4971611;28;20058;-80
2021/01/31 11:44:12;;;;;;;10.15;4.60;;;6.20;58.00;;;;;;4984543;28;20066;-82
2021/01/31 11:46:40;;;;;;;7.30;3.88;;;5.90;58.20;;;;;;4980057;28;20385;-80
2021/01/31 11:49:08;;;;;;;7.60;2.70;;;6.10;58.60;;;;;;4973810;28;20062;-82
2021/01/31 11:51:36;;;;;;;6.53;3.15;;;6.10;58.30;;;;;;5013336;28;20054;-82
2021/01/31 11:54:04;;;;;;;7.47;3.40;;;6.10;58.30;;;;;;4996411;28;20046;-81
2021/01/31 11:56:31;;;;;;;9.23;3.33;;;5.70;58.30;;;;;;5012939;28;20051;-81
2021/01/31 11:59:00;;;;;;;7.00;3.83;;;5.40;60.30;;;;;;5001631;28;20042;-80
2021/01/31 12:01:28;;;;;;;7.25;3.10;;;5.20;62.30;;;;;;4992654;28;20061;-79
2021/01/31 12:03:57;;;;;;;6.95;2.65;;;4.90;62.20;;;;;;4972030;28;20054;-81
2021/01/31 12:06:25;;;;;;;5.05;2.53;;;5.00;63.40;;;;;;5006827;28;20047;-80
2021/01/31 12:08:54;;;;;;;9.48;3.63;;;4.90;62.80;;;;;;4949640;28;20384;-82
2021/01/31 12:11:23;;;;;;;9.40;3.45;;;4.80;63.00;;;;;;4974871;28;20142;-82
2021/01/31 12:13:51;;;;;;;10.27;3.55;;;4.50;62.70;;;;;;4985181;28;20047;-81
2021/01/31 12:16:20;;;;;;;8.38;3.45;;;4.10;65.00;;;;;;5015588;28;20058;-80
2021/01/31 12:18:48;;;;;;;8.77;3.40;;;4.10;65.50;;;;;;4989480;28;20074;-80
2021/01/31 12:21:16;;;;;;;11.10;3.55;;;3.80;65.80;;;;;;4999503;28;20059;-80
2021/01/31 12:23:43;;;;;;;7.25;3.22;;;3.90;66.90;;;;;;4968476;28;20074;-80
2021/01/31 12:26:14;;;;;;;7.65;3.85;;;3.90;66.60;;;;;;4998996;28;20050;-83
2021/01/31 12:28:41;;;;;;;8.98;4.00;;;3.90;67.70;;;;;;4995031;28;20074;-80
2021/01/31 12:31:10;;;;;;;7.80;4.13;;;3.80;67.00;;;;;;4981918;28;20142;-80
2021/01/31 12:33:37;;;;;;;7.40;3.58;;;3.70;68.20;;;;;;4999786;28;20055;-80
2021/01/31 12:36:05;;;;;;;6.35;2.30;;;3.60;69.40;;;;;;4987161;28;20062;-81
2021/01/31 12:38:34;;;;;;;6.50;2.67;;;3.30;69.90;;;;;;5000497;28;20097;-81
2021/01/31 12:41:01;;;;;;;4.88;2.60;;;3.40;70.50;;;;;;5003094;28;20392;-81
2021/01/31 12:43:38;;;;;;;7.60;3.35;;;3.40;70.80;;;;;;4981752;28;20063;-80
2021/01/31 12:46:05;;;;;;;7.22;2.70;;;3.50;70.70;;;;;;4976534;28;20069;-79
2021/01/31 12:48:32;;;;;;;6.50;3.28;;;3.40;70.70;;;;;;4999894;28;20051;-82
2021/01/31 12:50:59;;;;;;;8.65;3.40;;;3.30;71.10;;;;;;4988896;28;20066;-80
2021/01/31 12:53:26;;;;;;;7.32;2.83;;;3.30;71.40;;;;;;4984375;28;20266;-80
2021/01/31 12:55:55;;;;;;;7.00;3.08;;;3.20;71.40;;;;;;5000179;28;20114;-81
2021/01/31 12:58:22;;;;;;;8.60;4.68;;;3.30;70.60;;;;;;4986189;28;20057;-81
2021/01/31 13:00:50;;;;;;;5.63;2.38;;;3.30;70.60;;;;;;4993630;28;20242;-80
2021/01/31 13:03:18;;;;;;;6.55;3.08;;;3.50;70.50;;;;;;4991406;28;21131;-83
2021/01/31 13:05:45;;;;;;;8.73;3.40;;;3.50;70.10;;;;;;5015626;28;20062;-82
2021/01/31 13:08:12;;;;;;;7.95;2.85;;;3.60;70.60;;;;;;4998385;28;20121;-81
2021/01/31 13:10:41;;;;;;;9.05;3.55;;;3.70;70.20;;;;;;4986456;28;20331;-82
2021/01/31 13:13:09;;;;;;;7.53;2.88;;;3.50;69.40;;;;;;4983937;28;20262;-81
2021/01/31 13:15:39;;;;;;;8.75;3.38;;;3.30;70.10;;;;;;5001836;28;20118;-81
2021/01/31 13:18:06;;;;;;;6.40;3.03;;;3.30;71.30;;;;;;4982615;28;20069;-83
2021/01/31 13:20:37;;;;;;;8.02;3.50;;;3.30;70.70;;;;;;4958646;28;20127;-82
2021/01/31 13:23:05;;;;;;;7.95;3.33;;;3.40;70.90;;;;;;4962131;28;20085;-84